createdAt,value
2018-05-03T00:01:49.361Z,98182
2018-05-03T00:04:18.312Z,98177
2018-05-03T00:06:47.130Z,98182
2018-05-03T00:09:16.165Z,98176
2018-05-03T00:11:44.236Z,98175
2018-05-03T00:14:12.280Z,98181
2018-05-03T00:16:40.382Z,98183
2018-05-03T00:19:08.451Z,98189
2018-05-03T00:21:36.520Z,98190
2018-05-03T00:24:04.593Z,98192
2018-05-03T00:26:33.447Z,98193
2018-05-03T00:29:01.484Z,98195
2018-05-03T00:31:30.321Z,98195
2018-05-03T00:33:58.401Z,98199
2018-05-03T00:36:26.472Z,98196
2018-05-03T00:38:54.528Z,98203
2018-05-03T00:41:22.617Z,98205
2018-05-03T00:43:50.745Z,98210
2018-05-03T00:46:19.049Z,98211
2018-05-03T00:48:47.144Z,98217
2018-05-03T00:51:15.218Z,98220
2018-05-03T00:53:43.496Z,98219
2018-05-03T00:56:11.540Z,98216
2018-05-03T00:58:39.714Z,98212
2018-05-03T01:01:08.128Z,98215
2018-05-03T01:03:36.188Z,98214
2018-05-03T01:06:04.261Z,98222
2018-05-03T01:08:32.321Z,98217
2018-05-03T01:11:00.472Z,98226
2018-05-03T01:13:28.519Z,98225
2018-05-03T01:15:56.609Z,98221
2018-05-03T01:18:24.685Z,98219
2018-05-03T01:20:52.773Z,98220
2018-05-03T01:23:21.281Z,98232
2018-05-03T01:25:49.316Z,98234
2018-05-03T01:28:17.376Z,98237
2018-05-03T01:30:45.802Z,98240
2018-05-03T01:33:13.869Z,98234
2018-05-03T01:35:41.920Z,98231
2018-05-03T01:38:10.321Z,98238
2018-05-03T01:40:39.883Z,98236
2018-05-03T01:43:07.960Z,98243
2018-05-03T01:45:36.040Z,98239
2018-05-03T01:48:04.295Z,98237
2018-05-03T01:50:32.328Z,98238
2018-05-03T01:53:01.517Z,98245
2018-05-03T01:55:29.601Z,98246
2018-05-03T01:57:57.644Z,98248
2018-05-03T02:00:25.917Z,98263
2018-05-03T02:02:54.009Z,98257
2018-05-03T02:05:22.061Z,98261
2018-05-03T02:07:50.235Z,98257
2018-05-03T02:10:18.305Z,98258
2018-05-03T02:12:46.676Z,98254
2018-05-03T02:15:15.046Z,98252
2018-05-03T02:17:43.125Z,98252
2018-05-03T02:20:11.196Z,98249
2018-05-03T02:22:39.485Z,98254
2018-05-03T02:25:07.585Z,98253
2018-05-03T02:27:36.432Z,98255
2018-05-03T02:30:04.555Z,98251
2018-05-03T02:32:33.381Z,98253
2018-05-03T02:35:01.465Z,98251
2018-05-03T02:37:29.577Z,98254
2018-05-03T02:39:57.625Z,98249
2018-05-03T02:42:25.708Z,98259
2018-05-03T02:44:54.377Z,98255
2018-05-03T02:47:22.487Z,98257
2018-05-03T02:49:51.358Z,98255
2018-05-03T02:52:19.452Z,98265
2018-05-03T02:54:49.321Z,98267
2018-05-03T02:57:17.409Z,98263
2018-05-03T02:59:45.800Z,98267
2018-05-03T03:02:13.851Z,98261
2018-05-03T03:04:41.957Z,98265
2018-05-03T03:07:11.118Z,98261
2018-05-03T03:09:39.188Z,98262
2018-05-03T03:12:07.240Z,98257
2018-05-03T03:14:35.872Z,98244
2018-05-03T03:17:03.941Z,98253
2018-05-03T03:19:31.980Z,98253
2018-05-03T03:22:00.172Z,98252
2018-05-03T03:24:28.121Z,98250
2018-05-03T03:26:56.185Z,98254
2018-05-03T03:29:24.461Z,98257
2018-05-03T03:31:52.517Z,98264
2018-05-03T03:34:20.605Z,98267
2018-05-03T03:36:48.689Z,98275
2018-05-03T03:39:16.780Z,98272
2018-05-03T03:41:44.820Z,98269
2018-05-03T03:44:13.221Z,98265
2018-05-03T03:46:41.274Z,98254
2018-05-03T03:49:09.356Z,98258
2018-05-03T03:51:38.157Z,98255
2018-05-03T03:54:06.229Z,98253
2018-05-03T03:56:34.291Z,98251
2018-05-03T03:59:02.719Z,98251
2018-05-03T04:01:31.280Z,98246
2018-05-03T04:04:00.108Z,98249
2018-05-03T04:06:28.183Z,98251
2018-05-03T04:08:56.277Z,98263
2018-05-03T04:11:24.324Z,98265
2018-05-03T04:13:52.396Z,98271
2018-05-03T04:16:20.468Z,98277
2018-05-03T04:18:48.542Z,98280
2018-05-03T04:21:16.611Z,98279
2018-05-03T04:23:45.422Z,98279
2018-05-03T04:26:13.499Z,98284
2018-05-03T04:28:41.541Z,98286
2018-05-03T04:31:10.281Z,98294
2018-05-03T04:33:38.324Z,98299
2018-05-03T04:36:06.400Z,98299
2018-05-03T04:38:35.350Z,98299
2018-05-03T04:41:03.384Z,98303
2018-05-03T04:43:32.357Z,98305
2018-05-03T04:46:01.289Z,98310
2018-05-03T04:48:30.081Z,98314
2018-05-03T04:50:58.145Z,98314
2018-05-03T04:53:27.298Z,98317
2018-05-03T04:55:55.402Z,98320
2018-05-03T04:58:24.390Z,98324
2018-05-03T05:00:53.177Z,98323
2018-05-03T05:03:21.253Z,98322
2018-05-03T05:05:50.064Z,98323
2018-05-03T05:08:19.326Z,98330
2018-05-03T05:10:47.364Z,98332
2018-05-03T05:13:16.154Z,98329
2018-05-03T05:15:44.215Z,98335
2018-05-03T05:18:13.057Z,98338
2018-05-03T05:20:42.813Z,98340
2018-05-03T05:23:10.883Z,98341
2018-05-03T05:25:40.436Z,98333
2018-05-03T05:28:10.413Z,98333
2018-05-03T05:30:39.187Z,98340
2018-05-03T05:33:08.747Z,98344
2018-05-03T05:35:37.617Z,98345
2018-05-03T05:38:06.917Z,98350
2018-05-03T05:40:35.736Z,98353
2018-05-03T05:43:04.526Z,98353
2018-05-03T05:45:34.745Z,98361
2018-05-03T05:48:03.388Z,98360
2018-05-03T05:50:32.284Z,98366
2018-05-03T05:53:01.726Z,98367
2018-05-03T05:55:30.616Z,98372
2018-05-03T05:58:00.285Z,98366
2018-05-03T06:00:28.903Z,98374
2018-05-03T06:02:56.952Z,98377
2018-05-03T06:05:25.869Z,98389
2018-05-03T06:07:54.408Z,98390
2018-05-03T06:10:23.183Z,98391
2018-05-03T06:12:52.500Z,98398
2018-05-03T06:15:21.417Z,98402
2018-05-03T06:17:50.847Z,98408
2018-05-03T06:20:20.104Z,98411
2018-05-03T06:22:48.936Z,98417
2018-05-03T06:25:18.449Z,98427
2018-05-03T06:27:48.039Z,98430
2018-05-03T06:30:16.913Z,98429
2018-05-03T06:32:45.769Z,98426
2018-05-03T06:35:14.664Z,98429
2018-05-03T06:37:42.749Z,98430
2018-05-03T06:40:11.731Z,98432
2018-05-03T06:42:40.325Z,98434
2018-05-03T06:45:09.019Z,98439
2018-05-03T06:47:37.818Z,98445
2018-05-03T06:50:06.605Z,98450
2018-05-03T06:52:35.745Z,98453
2018-05-03T06:55:04.478Z,98461
2018-05-03T06:57:33.044Z,98458
2018-05-03T07:00:02.183Z,98464
2018-05-03T07:02:31.857Z,98468
2018-05-03T07:05:00.969Z,98474
2018-05-03T07:07:29.602Z,98468
2018-05-03T07:09:59.110Z,98471
2018-05-03T07:12:28.124Z,98473
2018-05-03T07:14:56.737Z,98469
2018-05-03T07:17:25.622Z,98472
2018-05-03T07:19:53.701Z,98469
2018-05-03T07:22:22.667Z,98474
2018-05-03T07:24:51.581Z,98472
2018-05-03T07:27:20.255Z,98471
2018-05-03T07:29:48.329Z,98469
2018-05-03T07:32:17.061Z,98470
2018-05-03T07:34:47.494Z,98469
2018-05-03T07:37:17.530Z,98473
2018-05-03T07:39:46.252Z,98471
2018-05-03T07:42:15.133Z,98479
2018-05-03T07:44:44.159Z,98479
2018-05-03T07:47:13.769Z,98480
2018-05-03T07:49:43.064Z,98482
2018-05-03T07:52:12.556Z,98483
2018-05-03T07:54:40.625Z,98487
2018-05-03T07:57:10.222Z,98487
2018-05-03T07:59:38.854Z,98487
2018-05-03T08:02:07.016Z,98481
2018-05-03T08:04:35.881Z,98487
2018-05-03T08:07:03.952Z,98489
2018-05-03T08:09:32.548Z,98487
2018-05-03T08:12:01.298Z,98489
2018-05-03T08:14:30.138Z,98486
2018-05-03T08:16:59.088Z,98496
2018-05-03T08:19:27.957Z,98499
2018-05-03T08:21:56.373Z,98491
2018-05-03T08:24:25.265Z,98484
2018-05-03T08:26:53.318Z,98483
2018-05-03T08:29:22.137Z,98485
2018-05-03T08:31:51.172Z,98490
2018-05-03T08:34:20.421Z,98477
2018-05-03T08:36:49.494Z,98481
2018-05-03T08:39:18.300Z,98484
2018-05-03T08:41:47.073Z,98482
2018-05-03T08:44:15.656Z,98486
2018-05-03T08:46:44.461Z,98489
2018-05-03T08:49:12.533Z,98486
2018-05-03T08:51:40.579Z,98491
2018-05-03T08:54:09.907Z,98505
2018-05-03T08:56:39.271Z,98495
2018-05-03T08:59:07.344Z,98493
2018-05-03T09:01:36.089Z,98498
2018-05-03T09:04:04.530Z,98498
2018-05-03T09:06:32.633Z,98493
2018-05-03T09:09:02.122Z,98484
2018-05-03T09:11:30.194Z,98483
2018-05-03T09:13:59.047Z,98490
2018-05-03T09:16:28.088Z,98496
2018-05-03T09:18:56.945Z,98492
2018-05-03T09:21:25.769Z,98493
2018-05-03T09:23:55.537Z,98491
2018-05-03T09:26:24.056Z,98503
2018-05-03T09:28:52.840Z,98512
2018-05-03T09:31:21.425Z,98504
2018-05-03T09:33:50.118Z,98511
2018-05-03T09:36:18.885Z,98509
2018-05-03T09:38:47.663Z,98513
2018-05-03T09:41:16.325Z,98513
2018-05-03T09:43:45.273Z,98515
2018-05-03T09:46:13.876Z,98516
2018-05-03T09:48:42.733Z,98523
2018-05-03T09:51:11.328Z,98522
2018-05-03T09:53:41.513Z,98523
2018-05-03T09:56:10.417Z,98518
2018-05-03T09:58:38.982Z,98522
2018-05-03T10:01:07.114Z,98527
2018-05-03T10:03:35.985Z,98512
2018-05-03T10:06:05.656Z,98522
2018-05-03T10:08:34.386Z,98517
2018-05-03T10:11:04.554Z,98518
2018-05-03T10:13:33.645Z,98506
2018-05-03T10:16:02.278Z,98513
2018-05-03T10:18:30.824Z,98513
2018-05-03T10:20:59.537Z,98506
2018-05-03T10:23:29.723Z,98501
2018-05-03T10:25:58.541Z,98503
2018-05-03T10:28:26.640Z,98507
2018-05-03T10:30:55.498Z,98504
2018-05-03T10:33:25.264Z,98503
2018-05-03T10:35:53.696Z,98495
2018-05-03T10:38:22.390Z,98484
2018-05-03T10:40:51.250Z,98486
2018-05-03T10:43:19.367Z,98493
2018-05-03T10:45:47.434Z,98493
2018-05-03T10:48:16.372Z,98485
2018-05-03T10:50:44.973Z,98478
2018-05-03T10:53:14.401Z,98482
2018-05-03T10:55:43.226Z,98478
2018-05-03T10:58:13.075Z,98484
2018-05-03T11:00:41.956Z,98478
2018-05-03T11:03:10.872Z,98474
2018-05-03T11:05:39.643Z,98477
2018-05-03T11:08:08.419Z,98465
2018-05-03T11:10:36.960Z,98472
2018-05-03T11:13:06.517Z,98462
2018-05-03T11:15:35.138Z,98460
2018-05-03T11:18:03.797Z,98454
2018-05-03T11:20:32.817Z,98450
2018-05-03T11:23:01.635Z,98461
2018-05-03T11:25:31.077Z,98451
2018-05-03T11:27:59.905Z,98447
2018-05-03T11:30:27.945Z,98444
2018-05-03T11:32:56.609Z,98446
2018-05-03T11:35:24.676Z,98450
2018-05-03T11:37:53.206Z,98445
2018-05-03T11:40:22.704Z,98436
2018-05-03T11:42:51.393Z,98438
2018-05-03T11:45:20.981Z,98436
2018-05-03T11:47:50.722Z,98441
2018-05-03T11:50:20.658Z,98430
2018-05-03T11:52:49.221Z,98427
2018-05-03T11:55:18.081Z,98425
2018-05-03T11:57:47.912Z,98427
2018-05-03T12:00:16.669Z,98441
2018-05-03T12:02:45.782Z,98437
2018-05-03T12:05:14.769Z,98435
2018-05-03T12:07:43.984Z,98428
2018-05-03T12:10:12.861Z,98424
2018-05-03T12:12:41.564Z,98434
2018-05-03T12:15:10.319Z,98431
2018-05-03T12:17:39.112Z,98420
2018-05-03T12:20:07.896Z,98420
2018-05-03T12:22:36.597Z,98425
2018-05-03T12:25:05.097Z,98431
2018-05-03T12:27:33.952Z,98435
2018-05-03T12:30:02.945Z,98426
2018-05-03T12:32:31.778Z,98421
2018-05-03T12:35:00.469Z,98419
2018-05-03T12:37:29.105Z,98414
2018-05-03T12:39:57.892Z,98429
2018-05-03T12:42:26.609Z,98446
2018-05-03T12:44:56.486Z,98449
2018-05-03T12:47:24.553Z,98446
2018-05-03T12:49:53.363Z,98441
2018-05-03T12:52:22.333Z,98429
2018-05-03T12:54:50.380Z,98439
2018-05-03T12:57:19.045Z,98424
2018-05-03T12:59:47.706Z,98416
2018-05-03T13:02:15.801Z,98421
2018-05-03T13:04:43.872Z,98421
2018-05-03T13:07:11.937Z,98410
2018-05-03T13:09:41.940Z,98415
2018-05-03T13:12:10.717Z,98411
2018-05-03T13:14:39.587Z,98404
2018-05-03T13:17:08.721Z,98412
2018-05-03T13:19:37.685Z,98410
2018-05-03T13:22:05.773Z,98409
2018-05-03T13:24:34.958Z,98407
2018-05-03T13:27:03.400Z,98420
2018-05-03T13:29:33.264Z,98426
2018-05-03T13:32:02.191Z,98411
2018-05-03T13:34:31.635Z,98403
2018-05-03T13:37:00.357Z,98395
2018-05-03T13:39:29.029Z,98389
2018-05-03T13:41:57.084Z,98392
2018-05-03T13:44:25.884Z,98401
2018-05-03T13:46:54.664Z,98398
2018-05-03T13:49:23.380Z,98377
2018-05-03T13:51:52.898Z,98382
2018-05-03T13:54:21.836Z,98379
2018-05-03T13:56:50.969Z,98370
2018-05-03T13:59:19.013Z,98399
2018-05-03T14:01:47.910Z,98400
2018-05-03T14:04:16.021Z,98410
2018-05-03T14:06:46.085Z,98407
2018-05-03T14:09:14.889Z,98399
2018-05-03T14:11:43.509Z,98391
2018-05-03T14:14:11.549Z,98379
2018-05-03T14:16:39.613Z,98378
2018-05-03T14:19:08.616Z,98389
2018-05-03T14:21:36.613Z,98382
2018-05-03T14:24:05.769Z,98388
2018-05-03T14:26:34.520Z,98395
2018-05-03T14:29:03.789Z,98404
2018-05-03T14:31:31.857Z,98410
2018-05-03T14:34:00.848Z,98407
2018-05-03T14:36:28.922Z,98407
2018-05-03T14:38:56.993Z,98410
2018-05-03T14:41:25.048Z,98409
2018-05-03T14:43:53.105Z,98402
2018-05-03T14:46:21.793Z,98418
2018-05-03T14:48:50.580Z,98415
2018-05-03T14:51:18.664Z,98410
2018-05-03T14:53:47.540Z,98404
2018-05-03T14:56:16.329Z,98415
2018-05-03T14:58:45.118Z,98417
2018-05-03T15:01:13.201Z,98424
2018-05-03T15:03:41.289Z,98422
2018-05-03T15:06:09.668Z,98419
2018-05-03T15:08:37.741Z,98413
2018-05-03T15:11:05.781Z,98420
2018-05-03T15:13:34.057Z,98426
2018-05-03T15:16:02.173Z,98429
2018-05-03T15:18:30.899Z,98430
2018-05-03T15:20:59.416Z,98428
2018-05-03T15:23:27.473Z,98424
2018-05-03T15:25:56.260Z,98426
2018-05-03T15:28:24.341Z,98420
2018-05-03T15:30:52.429Z,98433
2018-05-03T15:33:21.088Z,98438
2018-05-03T15:35:49.169Z,98437
2018-05-03T15:38:18.049Z,98435
2018-05-03T15:40:46.750Z,98439
2018-05-03T15:43:14.833Z,98452
2018-05-03T15:45:43.605Z,98454
2018-05-03T15:48:11.664Z,98462
2018-05-03T15:50:40.510Z,98456
2018-05-03T15:53:09.330Z,98459
2018-05-03T15:55:37.458Z,98462
2018-05-03T15:58:05.736Z,98460
2018-05-03T16:00:33.809Z,98458
2018-05-03T16:03:02.454Z,98452
2018-05-03T16:05:31.165Z,98451
2018-05-03T16:07:59.237Z,98451
2018-05-03T16:10:27.277Z,98442
2018-05-03T16:12:56.196Z,98435
2018-05-03T16:15:24.269Z,98446
2018-05-03T16:17:52.324Z,98442
2018-05-03T16:20:20.717Z,98445
2018-05-03T16:22:49.520Z,98450
2018-05-03T16:25:18.387Z,98446
2018-05-03T16:27:46.747Z,98450
2018-05-03T16:30:14.828Z,98456
2018-05-03T16:32:42.918Z,98441
2018-05-03T16:35:11.165Z,98442
2018-05-03T16:37:39.353Z,98443
2018-05-03T16:40:07.436Z,98449
2018-05-03T16:42:37.325Z,98443
2018-05-03T16:45:05.382Z,98438
2018-05-03T16:47:33.459Z,98444
2018-05-03T16:50:01.845Z,98453
2018-05-03T16:52:29.909Z,98454
2018-05-03T16:54:57.977Z,98456
2018-05-03T16:57:26.048Z,98452
2018-05-03T16:59:54.137Z,98452
2018-05-03T17:02:22.200Z,98455
2018-05-03T17:04:50.779Z,98457
2018-05-03T17:07:18.788Z,98456
2018-05-03T17:09:46.856Z,98457
2018-05-03T17:12:16.093Z,98458
2018-05-03T17:14:45.112Z,98461
2018-05-03T17:17:13.869Z,98463
2018-05-03T17:19:42.725Z,98464
2018-05-03T17:22:10.771Z,98465
2018-05-03T17:24:39.144Z,98472
2018-05-03T17:27:07.233Z,98476
2018-05-03T17:29:35.323Z,98480
2018-05-03T17:32:03.654Z,98482
2018-05-03T17:34:31.730Z,98484
2018-05-03T17:36:59.802Z,98477
2018-05-03T17:39:28.337Z,98483
2018-05-03T17:41:56.393Z,98484
2018-05-03T17:44:24.536Z,98491
2018-05-03T17:46:52.848Z,98490
2018-05-03T17:49:20.885Z,98498
2018-05-03T17:51:48.945Z,98508
2018-05-03T17:54:17.033Z,98506
2018-05-03T17:56:45.113Z,98513
2018-05-03T17:59:14.124Z,98519
2018-05-03T18:01:42.166Z,98520
2018-05-03T18:04:10.301Z,98527
2018-05-03T18:06:38.613Z,98533
2018-05-03T18:09:07.638Z,98533
2018-05-03T18:11:35.709Z,98543
2018-05-03T18:14:03.777Z,98546
2018-05-03T18:16:31.868Z,98549
2018-05-03T18:18:59.905Z,98550
2018-05-03T18:21:28.053Z,98561
2018-05-03T18:23:56.048Z,98556
2018-05-03T18:26:24.104Z,98565
2018-05-03T18:28:52.168Z,98564
2018-05-03T18:31:20.589Z,98570
2018-05-03T18:33:48.845Z,98570
2018-05-03T18:36:16.933Z,98569
2018-05-03T18:38:45.375Z,98580
2018-05-03T18:41:13.442Z,98584
2018-05-03T18:43:41.534Z,98591
2018-05-03T18:46:09.609Z,98600
2018-05-03T18:48:37.701Z,98603
2018-05-03T18:51:05.740Z,98608
2018-05-03T18:53:34.632Z,98605
2018-05-03T18:56:02.725Z,98612
2018-05-03T18:58:30.772Z,98614
2018-05-03T19:00:58.931Z,98619
2018-05-03T19:03:26.904Z,98618
2018-05-03T19:05:55.000Z,98625
2018-05-03T19:08:23.368Z,98631
2018-05-03T19:10:51.454Z,98634
2018-05-03T19:13:19.594Z,98639
2018-05-03T19:15:48.121Z,98641
2018-05-03T19:18:16.382Z,98636
2018-05-03T19:20:44.505Z,98639
2018-05-03T19:23:12.541Z,98651
2018-05-03T19:25:42.124Z,98658
2018-05-03T19:28:10.181Z,98655
2018-05-03T19:30:38.273Z,98666
2018-05-03T19:33:06.640Z,98667
2018-05-03T19:35:34.804Z,98676
2018-05-03T19:38:02.797Z,98679
2018-05-03T19:40:30.885Z,98686
2018-05-03T19:42:58.936Z,98681
2018-05-03T19:45:26.997Z,98689
2018-05-03T19:47:55.328Z,98693
2018-05-03T19:50:24.282Z,98694
2018-05-03T19:52:52.329Z,98698
2018-05-03T19:55:20.736Z,98706
2018-05-03T19:57:48.801Z,98708
2018-05-03T20:00:16.889Z,98716
2018-05-03T20:02:45.269Z,98726
2018-05-03T20:05:13.309Z,98725
2018-05-03T20:07:42.097Z,98727
2018-05-03T20:10:10.161Z,98726
2018-05-03T20:12:38.253Z,98725
2018-05-03T20:15:06.312Z,98730
2018-05-03T20:17:34.400Z,98732
2018-05-03T20:20:02.485Z,98735
2018-05-03T20:22:30.540Z,98737
2018-05-03T20:24:58.625Z,98738
2018-05-03T20:27:27.197Z,98747
2018-05-03T20:29:55.589Z,98749
2018-05-03T20:32:23.658Z,98748
2018-05-03T20:34:51.730Z,98757
2018-05-03T20:37:20.109Z,98762
2018-05-03T20:39:48.181Z,98765
2018-05-03T20:42:16.253Z,98763
2018-05-03T20:44:45.100Z,98760
2018-05-03T20:47:13.149Z,98769
2018-05-03T20:49:41.247Z,98767
2018-05-03T20:52:09.577Z,98775
2018-05-03T20:54:37.657Z,98775
2018-05-03T20:57:06.686Z,98775
2018-05-03T20:59:35.110Z,98776
2018-05-03T21:02:03.176Z,98779
2018-05-03T21:04:31.248Z,98775
2018-05-03T21:06:59.936Z,98774
2018-05-03T21:09:27.945Z,98768
2018-05-03T21:11:56.793Z,98773
2018-05-03T21:14:25.172Z,98774
2018-05-03T21:16:53.221Z,98767
2018-05-03T21:19:21.732Z,98763
2018-05-03T21:21:49.780Z,98766
2018-05-03T21:24:17.869Z,98767
2018-05-03T21:26:45.958Z,98779
2018-05-03T21:29:14.764Z,98772
2018-05-03T21:31:42.889Z,98773
2018-05-03T21:34:11.689Z,98771
2018-05-03T21:36:39.760Z,98777
2018-05-03T21:39:07.805Z,98775
2018-05-03T21:41:36.257Z,98774
2018-05-03T21:44:04.268Z,98771
2018-05-03T21:46:32.332Z,98771
2018-05-03T21:49:00.736Z,98778
2018-05-03T21:51:29.389Z,98775
2018-05-03T21:53:57.446Z,98773
2018-05-03T21:56:25.523Z,98775
2018-05-03T21:58:54.421Z,98774
2018-05-03T22:01:22.488Z,98778
2018-05-03T22:03:50.649Z,98774
2018-05-03T22:06:19.352Z,98771
2018-05-03T22:08:47.437Z,98773
2018-05-03T22:11:15.485Z,98774
2018-05-03T22:13:43.874Z,98776
2018-05-03T22:16:11.957Z,98775
2018-05-03T22:18:40.045Z,98778
2018-05-03T22:21:08.386Z,98781
2018-05-03T22:23:36.477Z,98773
2018-05-03T22:26:04.537Z,98780
2018-05-03T22:28:32.873Z,98785
2018-05-03T22:31:01.697Z,98781
2018-05-03T22:33:29.789Z,98782
2018-05-03T22:35:57.876Z,98785
2018-05-03T22:38:25.953Z,98791
2018-05-03T22:40:54.083Z,98792
2018-05-03T22:43:22.396Z,98794
2018-05-03T22:45:50.441Z,98797
2018-05-03T22:48:18.502Z,98792
2018-05-03T22:50:46.921Z,98786
2018-05-03T22:53:14.992Z,98794
2018-05-03T22:55:43.037Z,98796
2018-05-03T22:58:11.136Z,98791
2018-05-03T23:00:39.205Z,98797
2018-05-03T23:03:07.278Z,98797
2018-05-03T23:05:35.361Z,98797
2018-05-03T23:08:04.425Z,98801
2018-05-03T23:10:32.513Z,98797
2018-05-03T23:13:00.969Z,98797
2018-05-03T23:15:29.029Z,98804
2018-05-03T23:17:58.062Z,98808
2018-05-03T23:20:26.101Z,98818
2018-05-03T23:22:54.160Z,98812
2018-05-03T23:25:22.581Z,98813
2018-05-03T23:27:50.649Z,98812
2018-05-03T23:30:18.734Z,98811
2018-05-03T23:32:47.102Z,98816
2018-05-03T23:35:15.170Z,98817
2018-05-03T23:37:43.249Z,98816
2018-05-03T23:40:11.520Z,98813
2018-05-03T23:42:39.755Z,98808
2018-05-03T23:45:07.829Z,98818
2018-05-03T23:47:36.223Z,98815
2018-05-03T23:50:04.275Z,98816
2018-05-03T23:52:32.317Z,98812
2018-05-03T23:55:01.968Z,98813
2018-05-03T23:57:30.029Z,98807
2018-05-03T23:59:58.101Z,98812
